Flight Track Log - Related Links

Times and Time Zones

All times are in EDT time to prevent confusion due to time zone crossing. See the SWA2966 flight status page for this flight to view local times or setup timezone preferences in your user account.

Time Position Orientation Groundspeed Altitude Reporting Facility
EDT Latitude Longitude Course Direction KTS MPH feet Rate Location/Type
15:28 37.7333 -122.2500 288° West 152 175 1,600  Level Northern Cal TRACON
15:29 37.7500 -122.3167 288° West 221 254 4,100 2,900 Climbing Northern Cal TRACON
15:30 37.7500 -122.3833 270° West 242 278 7,400 2,900 Climbing Northern Cal TRACON
15:31 37.6833 -122.4333 211° Southwest 270 311 9,900 1,500 Climbing Northern Cal TRACON
15:32 37.6092 -122.4631 198° South 291 335 10,400 2,016 Climbing Oakland Center
15:33 37.5169 -122.4800 188° South 332 382 14,000 3,512 Climbing Oakland Center
15:34 37.4500 -122.3953 135° Southeast 351 404 17,600 2,927 Climbing Oakland Center
15:35 37.3886 -122.2942 127° Southeast 362 417 20,000 2,683 Climbing Oakland Center
15:36 37.3236 -122.1894 128° Southeast 375 432 23,100 2,852 Climbing Oakland Center
15:37 37.2564 -122.0786 127° Southeast 393 452 25,800 2,732 Climbing Oakland Center
15:38 37.1711 -121.9425 128° Southeast 410 472 28,700 2,390 Climbing Oakland Center
15:39 37.0986 -121.8250 128° Southeast 422 486 30,700 1,902 Climbing Oakland Center
15:40 37.0222 -121.7050 129° Southeast 438 504 32,600 1,756 Climbing Oakland Center
15:41 36.9456 -121.5814 128° Southeast 450 518 34,300 1,707 Climbing Oakland Center
15:42 36.8681 -121.4561 128° Southeast 454 522 36,100 1,561 Climbing Oakland Center
15:43 36.7825 -121.3197 128° Southeast 460 529 37,500 1,366 Climbing Oakland Center
15:44 36.7028 -121.1919 128° Southeast 464 534 38,900 486 Climbing Oakland Center
15:46 36.5813 -121.0706 127° Southeast  Level FlightAware Approximate
15:46 36.5450 -120.9442 127° Southeast 454 522 39,000  Level Oakland Center
15:47 36.4669 -120.8231 129° Southeast 451 519 39,000  Level Oakland Center
15:48 36.3897 -120.6981 127° Southeast 454 522 39,000  Level Oakland Center
15:49 36.3117 -120.5753 128° Southeast 454 522 39,000  Level Oakland Center
15:50 36.2142 -120.4256 129° Southeast 468 539 39,000  Level Oakland Center
15:51 36.1364 -120.3031 128° Southeast 456 525 39,000  Level Oakland Center
15:52 36.0569 -120.1817 129° Southeast 453 521 39,000  Level Oakland Center
15:53 35.9789 -120.0653 130° Southeast 438 504 39,000  Level Oakland Center
15:54 35.8964 -119.9406 129° Southeast 457 526 39,000  Level Oakland Center
15:55 35.8161 -119.8164 129° Southeast 461 531 39,000  Level Oakland Center
15:56 35.7347 -119.6933 129° Southeast 460 529 39,000  Level Oakland Center
15:57 35.6514 -119.5692 130° Southeast 466 536 39,000  Level Oakland Center
15:58 35.5694 -119.4456 129° Southeast 464 534 39,000 -195 Level Oakland Center
15:59 35.4714 -119.2975 129° Southeast 464 534 38,600 -683 Descending Oakland Center
16:00 35.3894 -119.1753 129° Southeast 464 534 37,600 -780 Descending Oakland Center
16:01 35.3089 -119.0536 129° Southeast 459 528 37,000 -293 Descending Oakland Center
16:03 35.2258 -118.9319 130° Southeast 463 533 37,000 -98 Level Oakland Center
16:04 35.1453 -118.8108 129° Southeast 462 532 36,800 -1,317 Descending Oakland Center
16:05 35.0631 -118.6922 130° Southeast 458 527 34,300 -2,447 Descending Oakland Center
16:05 35.0467 -118.6675 129° Southeast 455 524 33,700 -1,636 Descending Los Angeles Center
16:06 34.9475 -118.5236 130° Southeast 461 531 32,200 -1,632 Descending Los Angeles Center
16:07 34.8781 -118.4211 130° Southeast 466 536 30,300 -2,304 Descending Los Angeles Center
16:08 34.7811 -118.2808 130° Southeast 454 522 27,400 -2,516 Descending Los Angeles Center
16:09 34.7036 -118.1692 130° Southeast 439 505 25,100 -2,177 Descending Los Angeles Center
16:10 34.6275 -118.0581 130° Southeast 433 498 22,900 -2,129 Descending Los Angeles Center
16:11 34.5733 -117.9394 119° Southeast 407 468 20,700 -1,935 Descending Los Angeles Center
16:12 34.5236 -117.8311 119° Southeast 378 435 18,900 -1,839 Descending Los Angeles Center
16:13 34.4672 -117.7083 119° Southeast 351 404 16,900 -1,839 Descending Los Angeles Center
16:14 34.4225 -117.6089 119° Southeast 340 391 15,100 -1,403 Descending Los Angeles Center
16:15 34.3806 -117.5175 119° Southeast 331 381 14,000 -1,355 Descending Los Angeles Center
16:16 34.3328 -117.4106 118° Southeast 314 361 12,300 -1,824 Descending Los Angeles Center
16:17 34.2906 -117.3183 119° Southeast 300 345 10,200 -1,920 Descending Los Angeles Center
16:18 34.2417 -117.2428 128° Southeast 288 331 8,300 -1,065 Descending Los Angeles Center
16:19 34.1731 -117.2053 156° South 261 300 8,000 -435 Descending Los Angeles Center
16:20 34.1072 -117.1947 172° South 260 299 7,400 -651 Descending Los Angeles Center
16:21 34.0833 -117.2000 190° South 252 290 7,100 -889 Descending Southern California TRACON
16:22 34.0500 -117.2667 239° Southwest 193 222 6,200 -950 Descending Southern California TRACON
16:23 34.0500 -117.3333 270° West 183 211 5,200 -1,140 Descending Southern California TRACON
16:24 34.0500 -117.3833 270° West 180 207 3,900 -1,041 Descending Southern California TRACON
16:25 34.0500 -117.4500 270° West 172 198 3,100 -750 Descending Southern California TRACON
16:26 34.0500 -117.5000 270° West 143 165 2,400 -750 Descending Southern California TRACON
16:27 34.0500 -117.5333 270° West 130 150 1,600 -800 Descending Southern California TRACON
16:30 34.0500 -117.6000 270° West  Level FlightAware Approximate

Login

Don't have an account? Register now (free) for customized features, flight alerts, and more!